LEB weather

Lebanon Municipal Airport
Lebanon, New Hampshire, United States

Public forecast

Using degrees Fahrenheit for public forecast. Weather courtesy of forecast.io.

Current aviation weather report (METAR) for Lebanon Municipal Airport

Retrieved 2020/06/04 10:53 UTC (38 minutes ago):

KLEB 041053Z 00000KT M1/4SM FG VV001 12/11 A2977 RMK AO2 SLP076 T01220111

Aviation forecast (TAF) for Lebanon Municipal Airport

Retrieved 2020/06/04 06:42 UTC (5 hours ago):

TAF COR KLEB 040539Z 0406/0506 00000KT 1SM BR BKN001 FM041300 VRB05KT P6SM FEW250